Time;durP1;ratioP1;P1;durP2;ratioP2;P2;SDS_P1;SDS_P2;PMS_P1;PMS_P2;Temp;Humidity;BMP_temperature;BMP_pressure;BME280_temperature;BME280_humidity;BME280_pressure;Samples;Min_cycle;Max_cycle;Signal;HPM_P1;HPM_P2
2024/01/29 00:01:47;;;;;;;;;;;;;;;2.08;100.00;102467.09;4995550;28;20453;-68
2024/01/29 00:04:12;;;;;;;;;;;;;;;2.07;100.00;102464.47;5005096;28;19929;-68
2024/01/29 00:06:37;;;;;;;;;;;;;;;1.82;100.00;102442.78;5006960;28;19968;-68
2024/01/29 00:09:02;;;;;;;;;;;;;;;1.82;100.00;102458.66;5006485;28;19929;-69
2024/01/29 00:11:27;;;;;;;;;;;;;;;1.78;100.00;102461.38;5006369;28;19944;-68
2024/01/29 00:13:53;;;;;;;;;;;;;;;1.74;100.00;102467.59;4994936;28;20470;-68
2024/01/29 00:16:18;;;;;;;;;;;;;;;1.76;100.00;102463.16;4996326;28;19953;-69
2024/01/29 00:18:43;;;;;;;;;;;;;;;1.69;100.00;102461.50;4992051;28;20020;-68
2024/01/29 00:21:08;;;;;;;;;;;;;;;1.75;100.00;102461.41;4991858;28;20007;-69
2024/01/29 00:23:33;;;;;;;;;;;;;;;1.83;100.00;102453.38;4985618;28;20116;-68
2024/01/29 00:25:59;;;;;;;;;;;;;;;1.81;100.00;102449.88;4999296;28;19917;-69
2024/01/29 00:28:24;;;;;;;;;;;;;;;1.77;100.00;102446.38;4992874;28;19939;-68
2024/01/29 00:30:49;;;;;;;;;;;;;;;1.55;100.00;102456.41;4995293;28;19933;-69
2024/01/29 00:33:14;;;;;;;;;;;;;;;1.54;100.00;102459.06;5005691;28;20208;-68
2024/01/29 00:35:40;;;;;;;;;;;;;;;1.59;100.00;102457.25;4993943;28;19921;-69
2024/01/29 00:38:05;;;;;;;;;;;;;;;1.58;100.00;102455.47;4993864;28;20321;-68
2024/01/29 00:40:32;;;;;;;;;;;;;;;1.67;100.00;102444.78;5003147;28;20423;-69
2024/01/29 00:42:58;;;;;;;;;;;;;;;1.86;100.00;102453.28;4993864;28;19921;-69
2024/01/29 00:45:23;;;;;;;;;;;;;;;2.00;100.00;102453.06;4995139;28;19924;-68
2024/01/29 00:47:48;;;;;;;;;;;;;;;2.06;100.00;102457.44;5003446;28;19952;-68
2024/01/29 00:50:13;;;;;;;;;;;;;;;2.16;100.00;102463.44;5006532;28;20880;-68
2024/01/29 00:52:39;;;;;;;;;;;;;;;2.19;100.00;102460.75;4997613;28;19969;-68
2024/01/29 00:55:04;;;;;;;;;;;;;;;2.23;100.00;102458.00;4995299;28;19957;-68
2024/01/29 00:57:29;;;;;;;;;;;;;;;2.30;100.00;102466.72;4988707;28;19922;-68
2024/01/29 00:59:55;;;;;;;;;;;;;;;2.34;100.00;102463.13;4988637;28;19944;-68
2024/01/29 01:02:20;;;;;;;;;;;;;;;2.37;100.00;102460.44;4992584;28;19929;-68
2024/01/29 01:04:46;;;;;;;;;;;;;;;2.30;100.00;102461.44;4999783;28;19922;-68
2024/01/29 01:07:11;;;;;;;;;;;;;;;2.12;100.00;102461.75;5000663;28;19932;-68
2024/01/29 01:09:36;;;;;;;;;;;;;;;1.95;100.00;102461.09;4999727;28;19921;-68
2024/01/29 01:12:02;;;;;;;;;;;;;;;1.82;100.00;102475.44;4991162;28;20012;-68
2024/01/29 01:14:27;;;;;;;;;;;;;;;1.60;100.00;102473.09;4992963;28;19992;-68
2024/01/29 01:16:52;;;;;;;;;;;;;;;1.39;100.00;102486.63;5002854;28;19917;-69
2024/01/29 01:19:17;;;;;;;;;;;;;;;1.25;100.00;102477.09;5003613;28;19932;-69
2024/01/29 01:21:43;;;;;;;;;;;;;;;1.15;100.00;102484.28;4995553;28;19957;-68
2024/01/29 01:24:08;;;;;;;;;;;;;;;1.07;100.00;102486.13;5003249;28;20495;-68
2024/01/29 01:26:35;;;;;;;;;;;;;;;1.01;100.00;102484.44;5003765;28;19929;-68
2024/01/29 01:29:00;;;;;;;;;;;;;;;0.99;100.00;102482.69;5002601;28;20161;-68
2024/01/29 01:31:25;;;;;;;;;;;;;;;1.04;100.00;102496.72;5000664;28;19960;-68
2024/01/29 01:33:50;;;;;;;;;;;;;;;0.96;100.00;102488.91;4993131;28;20208;-68
2024/01/29 01:36:15;;;;;;;;;;;;;;;0.82;100.00;102489.03;4994597;28;19964;-68
2024/01/29 01:38:41;;;;;;;;;;;;;;;0.72;100.00;102492.66;5003297;28;20016;-68
2024/01/29 01:41:06;;;;;;;;;;;;;;;0.74;100.00;102491.78;4993385;28;19921;-68
2024/01/29 01:43:31;;;;;;;;;;;;;;;0.78;100.00;102484.66;5002792;28;19927;-69
2024/01/29 01:45:56;;;;;;;;;;;;;;;0.82;100.00;102488.16;4987313;28;19922;-68
2024/01/29 01:48:21;;;;;;;;;;;;;;;0.82;100.00;102490.78;4988822;28;19925;-68
2024/01/29 01:50:47;;;;;;;;;;;;;;;0.78;100.00;102486.47;4988874;28;20411;-68
2024/01/29 01:53:12;;;;;;;;;;;;;;;0.68;100.00;102485.63;5000363;28;20380;-68
2024/01/29 01:55:37;;;;;;;;;;;;;;;0.50;100.00;102490.22;4992004;28;19964;-68
2024/01/29 01:58:02;;;;;;;;;;;;;;;0.50;100.00;102486.72;4999301;28;19961;-68
2024/01/29 02:00:28;;;;;;;;;;;;;;;0.53;100.00;102486.69;4987009;28;20019;-68
2024/01/29 02:02:53;;;;;;;;;;;;;;;0.62;100.00;102483.09;4986586;28;19957;-68
2024/01/29 02:05:18;;;;;;;;;;;;;;;0.59;100.00;102482.22;4996109;28;20379;-68
2024/01/29 02:07:43;;;;;;;;;;;;;;;0.62;100.00;102489.22;4985919;28;20442;-68
2024/01/29 02:10:09;;;;;;;;;;;;;;;0.61;100.00;102487.47;4990390;28;20427;-68
2024/01/29 02:12:35;;;;;;;;;;;;;;;0.68;100.00;102486.53;5001026;28;20427;-68
2024/01/29 02:15:00;;;;;;;;;;;;;;;0.84;100.00;102484.63;5002081;28;19921;-69
2024/01/29 02:17:25;;;;;;;;;;;;;;;1.07;100.00;102475.53;5000179;28;19975;-69
2024/01/29 02:19:50;;;;;;;;;;;;;;;1.29;100.00;102480.56;4992262;28;19983;-68
2024/01/29 02:22:16;;;;;;;;;;;;;;;1.39;100.00;102487.50;5001845;28;20305;-69
2024/01/29 02:24:42;;;;;;;;;;;;;;;1.52;100.00;102485.56;5004464;28;20499;-68
2024/01/29 02:27:07;;;;;;;;;;;;;;;1.61;100.00;102489.88;4999492;28;19922;-69
2024/01/29 02:29:33;;;;;;;;;;;;;;;1.61;100.00;102497.81;4989534;28;20426;-69
2024/01/29 02:31:58;;;;;;;;;;;;;;;1.63;100.00;102491.59;4986320;28;20423;-68
2024/01/29 02:34:23;;;;;;;;;;;;;;;1.64;100.00;102492.47;4989422;28;19925;-68
2024/01/29 02:36:48;;;;;;;;;;;;;;;1.64;100.00;102495.97;4994323;28;19918;-68
2024/01/29 02:39:14;;;;;;;;;;;;;;;1.68;100.00;102491.53;4987752;28;19979;-68
2024/01/29 02:41:39;;;;;;;;;;;;;;;1.78;100.00;102485.19;4986346;28;20060;-68
2024/01/29 02:44:04;;;;;;;;;;;;;;;1.82;100.00;102482.50;5001565;28;19922;-68
2024/01/29 02:46:29;;;;;;;;;;;;;;;1.85;100.00;102480.72;4992807;28;20499;-68
2024/01/29 02:48:55;;;;;;;;;;;;;;;1.90;100.00;102481.50;4992190;28;19956;-68
2024/01/29 02:51:20;;;;;;;;;;;;;;;1.86;100.00;102476.28;4992090;28;20054;-69
2024/01/29 02:53:45;;;;;;;;;;;;;;;1.81;100.00;102489.59;5006978;28;20011;-68
2024/01/29 02:56:10;;;;;;;;;;;;;;;1.77;100.00;102488.75;4987066;28;20387;-69
2024/01/29 02:58:36;;;;;;;;;;;;;;;1.79;100.00;102481.66;5002099;28;20474;-68
2024/01/29 03:01:01;;;;;;;;;;;;;;;1.88;100.00;102485.06;4990344;28;19963;-68
2024/01/29 03:03:26;;;;;;;;;;;;;;;1.86;100.00;102482.44;4990698;28;19924;-68
2024/01/29 03:05:51;;;;;;;;;;;;;;;1.78;100.00;102485.19;4992085;28;19917;-68
2024/01/29 03:08:17;;;;;;;;;;;;;;;1.60;100.00;102478.38;4988973;28;19921;-68
2024/01/29 03:10:42;;;;;;;;;;;;;;;1.55;100.00;102476.72;4993365;28;19921;-68
2024/01/29 03:13:08;;;;;;;;;;;;;;;1.55;100.00;102480.25;4990202;28;19968;-68
2024/01/29 03:15:33;;;;;;;;;;;;;;;1.52;100.00;102480.28;4987767;28;19921;-68
2024/01/29 03:17:58;;;;;;;;;;;;;;;1.49;100.00;102482.97;5001631;28;19996;-68
2024/01/29 03:20:24;;;;;;;;;;;;;;;1.57;100.00;102472.28;4992120;28;19925;-69
2024/01/29 03:22:49;;;;;;;;;;;;;;;1.67;100.00;102478.31;4991538;28;19936;-68
2024/01/29 03:25:14;;;;;;;;;;;;;;;1.78;100.00;102476.41;4991803;28;19931;-68
2024/01/29 03:27:39;;;;;;;;;;;;;;;1.87;100.00;102480.69;5010443;28;19931;-68
2024/01/29 03:30:05;;;;;;;;;;;;;;;1.96;100.00;102483.19;4989067;28;20017;-68
2024/01/29 03:32:30;;;;;;;;;;;;;;;2.02;100.00;102480.44;4991778;28;20078;-68
2024/01/29 03:34:56;;;;;;;;;;;;;;;2.05;100.00;102482.19;4978039;28;20388;-68
2024/01/29 03:37:21;;;;;;;;;;;;;;;2.06;100.00;102479.47;4989973;28;20044;-69
2024/01/29 03:39:46;;;;;;;;;;;;;;;2.05;100.00;102484.81;5003545;28;20001;-68
2024/01/29 03:42:11;;;;;;;;;;;;;;;1.95;100.00;102494.69;4998580;28;19988;-68
2024/01/29 03:44:37;;;;;;;;;;;;;;;1.82;100.00;102498.41;5000785;28;20415;-68
2024/01/29 03:47:02;;;;;;;;;;;;;;;1.51;100.00;102489.13;4993094;28;22108;-68
2024/01/29 03:49:27;;;;;;;;;;;;;;;1.30;100.00;102501.75;4989731;28;19928;-68
2024/01/29 03:51:52;;;;;;;;;;;;;;;1.11;100.00;102495.78;5005075;28;19932;-68
2024/01/29 03:54:17;;;;;;;;;;;;;;;0.92;100.00;102505.69;4998869;28;19925;-68
2024/01/29 03:56:43;;;;;;;;;;;;;;;0.72;100.00;102509.41;4993117;28;19965;-68
2024/01/29 03:59:10;;;;;;;;;;;;;;;0.59;100.00;102492.78;4990914;28;20029;-68
2024/01/29 04:01:36;;;;;;;;;;;;;;;0.55;100.00;102496.34;4989834;28;19922;-68
2024/01/29 04:04:01;;;;;;;;;;;;;;;0.53;100.00;102495.47;4988377;28;20226;-68
2024/01/29 04:06:26;;;;;;;;;;;;;;;0.59;100.00;102497.19;4975537;28;19924;-69
2024/01/29 04:08:52;;;;;;;;;;;;;;;0.49;100.00;102491.13;4989609;28;20432;-68
2024/01/29 04:11:17;;;;;;;;;;;;;;;0.37;100.00;102494.75;4990069;28;19927;-68
2024/01/29 04:13:42;;;;;;;;;;;;;;;0.48;100.00;102496.44;5001405;28;19985;-68
2024/01/29 04:16:11;;;;;;;;;;;;;;;0.55;100.00;102493.72;5002419;28;19932;-69
2024/01/29 04:18:37;;;;;;;;;;;;;;;0.63;100.00;102493.63;4994563;28;20590;-68
2024/01/29 04:21:05;;;;;;;;;;;;;;;0.74;100.00;102504.09;4976912;28;19925;-68
2024/01/29 04:23:30;;;;;;;;;;;;;;;0.91;100.00;102501.28;4999261;28;19921;-68
2024/01/29 04:25:55;;;;;;;;;;;;;;;1.05;100.00;102503.78;4993690;28;19922;-68
2024/01/29 04:28:20;;;;;;;;;;;;;;;1.11;100.00;102505.47;4994352;28;20437;-68
2024/01/29 04:30:45;;;;;;;;;;;;;;;1.15;100.00;102504.53;4998312;28;20014;-68
2024/01/29 04:33:11;;;;;;;;;;;;;;;1.17;100.00;102508.06;4996720;28;20346;-68
2024/01/29 04:35:36;;;;;;;;;;;;;;;1.16;100.00;102507.19;4994527;28;19921;-68
2024/01/29 04:38:01;;;;;;;;;;;;;;;1.05;100.00;102506.44;4992161;28;20406;-68
2024/01/29 04:40:26;;;;;;;;;;;;;;;0.88;100.00;102501.31;4995068;28;20396;-68
2024/01/29 04:42:51;;;;;;;;;;;;;;;0.79;100.00;102502.28;5010052;28;19925;-68
2024/01/29 04:45:17;;;;;;;;;;;;;;;0.71;100.00;102507.66;4995300;28;19922;-69
2024/01/29 04:47:42;;;;;;;;;;;;;;;0.57;100.00;102504.25;5011539;28;19972;-68
2024/01/29 04:50:07;;;;;;;;;;;;;;;0.51;100.00;102513.13;5006781;28;19921;-68
2024/01/29 04:52:32;;;;;;;;;;;;;;;0.57;100.00;102504.25;5012683;28;19932;-68
2024/01/29 04:54:58;;;;;;;;;;;;;;;0.59;100.00;102505.13;4993286;28;19945;-69
2024/01/29 04:57:23;;;;;;;;;;;;;;;0.63;100.00;102500.69;5013324;28;20212;-68
2024/01/29 04:59:48;;;;;;;;;;;;;;;0.65;100.00;102504.22;4994072;28;20356;-68
2024/01/29 05:02:14;;;;;;;;;;;;;;;0.54;100.00;102504.28;5006808;28;19926;-68
2024/01/29 05:04:39;;;;;;;;;;;;;;;0.51;100.00;102502.56;5006138;28;19932;-68
2024/01/29 05:07:04;;;;;;;;;;;;;;;0.52;100.00;102501.66;4996665;28;19939;-68
2024/01/29 05:09:29;;;;;;;;;;;;;;;0.59;100.00;102506.00;5004454;28;20003;-68
2024/01/29 05:11:55;;;;;;;;;;;;;;;0.65;100.00;102510.34;4986581;28;19948;-68
2024/01/29 05:14:20;;;;;;;;;;;;;;;0.67;100.00;102507.69;4992759;28;19980;-68
2024/01/29 05:16:45;;;;;;;;;;;;;;;0.63;100.00;102503.34;5001980;28;20303;-68
2024/01/29 05:19:10;;;;;;;;;;;;;;;0.71;100.00;102505.00;4999787;28;20571;-68
2024/01/29 05:21:36;;;;;;;;;;;;;;;0.81;100.00;102504.91;5005447;28;20364;-68
2024/01/29 05:24:01;;;;;;;;;;;;;;;0.88;100.00;102514.53;4987250;28;20418;-68
2024/01/29 05:26:26;;;;;;;;;;;;;;;0.97;100.00;102508.28;4991055;28;19928;-68
2024/01/29 05:28:52;;;;;;;;;;;;;;;0.95;100.00;102513.59;4994537;28;19949;-68
2024/01/29 05:31:17;;;;;;;;;;;;;;;0.98;100.00;102502.97;4995765;28;19989;-68
2024/01/29 05:33:42;;;;;;;;;;;;;;;1.00;100.00;102506.50;5004061;28;20285;-68
2024/01/29 05:36:07;;;;;;;;;;;;;;;0.99;100.00;102512.66;4995656;28;19949;-68
2024/01/29 05:38:33;;;;;;;;;;;;;;;0.99;100.00;102507.38;4987805;28;19981;-68
2024/01/29 05:40:58;;;;;;;;;;;;;;;1.00;100.00;102506.50;5002336;28;19968;-68
2024/01/29 05:43:23;;;;;;;;;;;;;;;0.93;100.00;102503.94;5008613;28;20395;-68
2024/01/29 05:45:49;;;;;;;;;;;;;;;0.93;100.00;102504.78;4989841;28;20674;-68
2024/01/29 05:48:14;;;;;;;;;;;;;;;0.90;100.00;102510.09;4999953;28;20011;-68
2024/01/29 05:50:39;;;;;;;;;;;;;;;0.87;100.00;102510.13;4984229;28;19968;-68
2024/01/29 05:53:04;;;;;;;;;;;;;;;0.98;100.00;102516.22;4997070;28;20506;-68
2024/01/29 05:55:29;;;;;;;;;;;;;;;1.13;100.00;102517.81;4983258;28;20009;-68
2024/01/29 05:57:55;;;;;;;;;;;;;;;1.25;100.00;102526.47;4979224;28;20368;-68
2024/01/29 06:00:20;;;;;;;;;;;;;;;1.44;100.00;102521.84;4994971;28;20517;-68
2024/01/29 06:02:47;;;;;;;;;;;;;;;1.63;100.00;102528.66;4994287;28;19926;-68
2024/01/29 06:05:13;;;;;;;;;;;;;;;1.83;100.00;102538.13;4984510;28;19984;-68
2024/01/29 06:07:38;;;;;;;;;;;;;;;1.96;100.00;102536.19;4977972;28;20020;-68
2024/01/29 06:10:04;;;;;;;;;;;;;;;2.06;100.00;102524.53;5003298;28;20349;-68
2024/01/29 06:12:29;;;;;;;;;;;;;;;2.07;100.00;102517.47;4993199;28;19935;-69
2024/01/29 06:14:54;;;;;;;;;;;;;;;2.10;100.00;102522.72;4986252;28;19921;-68
2024/01/29 06:17:20;;;;;;;;;;;;;;;2.10;100.00;102520.94;5002220;28;19949;-68
2024/01/29 06:19:45;;;;;;;;;;;;;;;2.14;100.00;102519.09;4983885;28;19921;-68
2024/01/29 06:22:10;;;;;;;;;;;;;;;2.21;100.00;102519.91;4990996;28;20011;-68
2024/01/29 06:24:35;;;;;;;;;;;;;;;2.20;100.00;102523.47;4987999;28;19951;-69
2024/01/29 06:27:01;;;;;;;;;;;;;;;2.30;100.00;102511.78;4998272;28;20016;-68
2024/01/29 06:29:27;;;;;;;;;;;;;;;2.29;100.00;102525.09;4995224;28;19921;-68
2024/01/29 06:31:52;;;;;;;;;;;;;;;2.27;100.00;102524.22;4992680;28;19932;-68
2024/01/29 06:34:17;;;;;;;;;;;;;;;2.28;100.00;102521.53;4992302;28;20288;-68
2024/01/29 06:36:42;;;;;;;;;;;;;;;2.36;100.00;102519.66;4984248;28;20352;-68
2024/01/29 06:39:08;;;;;;;;;;;;;;;2.31;100.00;102521.50;4990759;28;20287;-68
2024/01/29 06:41:33;;;;;;;;;;;;;;;2.34;100.00;102524.09;4983050;28;19922;-68
2024/01/29 06:43:58;;;;;;;;;;;;;;;2.34;100.00;102521.44;4995609;28;20419;-69
2024/01/29 06:46:23;;;;;;;;;;;;;;;2.44;100.00;102521.31;4994783;28;20370;-68
2024/01/29 06:48:49;;;;;;;;;;;;;;;2.47;100.00;102518.59;5002140;28;20200;-68
2024/01/29 06:51:15;;;;;;;;;;;;;;;2.46;100.00;102527.47;4983120;28;19960;-68
2024/01/29 06:53:41;;;;;;;;;;;;;;;2.47;100.00;102526.56;4999825;28;19922;-69
2024/01/29 06:56:06;;;;;;;;;;;;;;;2.42;100.00;102534.56;4995398;28;19921;-68
2024/01/29 06:58:31;;;;;;;;;;;;;;;2.49;100.00;102538.88;4993409;28;19926;-68
2024/01/29 07:00:59;;;;;;;;;;;;;;;2.51;100.00;102536.22;5009750;28;19921;-68
2024/01/29 07:03:24;;;;;;;;;;;;;;;2.53;100.00;102545.00;4996889;28;20102;-68
2024/01/29 07:05:49;;;;;;;;;;;;;;;2.54;100.00;102546.75;4992228;28;19952;-68
2024/01/29 07:08:16;;;;;;;;;;;;;;;2.58;100.00;102552.91;4993006;28;19914;-68
2024/01/29 07:10:41;;;;;;;;;;;;;;;2.62;100.00;102549.31;4985622;28;19921;-68
2024/01/29 07:13:06;;;;;;;;;;;;;;;2.64;100.00;102555.47;4992411;28;19932;-68
2024/01/29 07:15:31;;;;;;;;;;;;;;;2.64;100.00;102560.75;5009579;28;20311;-68
2024/01/29 07:17:57;;;;;;;;;;;;;;;2.68;100.00;102565.09;5003843;28;20687;-68
2024/01/29 07:20:22;;;;;;;;;;;;;;;2.72;100.00;102564.13;4997093;28;20356;-68
2024/01/29 07:22:47;;;;;;;;;;;;;;;2.71;100.00;102562.38;4987980;28;19957;-68
2024/01/29 07:25:13;;;;;;;;;;;;;;;2.72;100.00;102573.88;4985645;28;20413;-68
2024/01/29 07:27:38;;;;;;;;;;;;;;;2.72;100.00;102571.22;5000104;28;19924;-68
2024/01/29 07:30:03;;;;;;;;;;;;;;;2.75;100.00;102577.34;4993659;28;19964;-68
2024/01/29 07:32:31;;;;;;;;;;;;;;;2.76;100.00;102583.56;4986853;28;19949;-68
2024/01/29 07:34:57;;;;;;;;;;;;;;;2.76;100.00;102595.03;4983714;28;19922;-68
2024/01/29 07:37:23;;;;;;;;;;;;;;;2.76;100.00;102595.03;4990566;28;19952;-68
2024/01/29 07:39:48;;;;;;;;;;;;;;;2.59;100.00;102597.94;5003143;28;19965;-68
2024/01/29 07:42:13;;;;;;;;;;;;;;;2.38;100.00;102584.13;4984245;28;19926;-68
2024/01/29 07:44:38;;;;;;;;;;;;;;;2.30;100.00;102587.81;4985544;28;19957;-68
2024/01/29 07:47:04;;;;;;;;;;;;;;;2.40;100.00;102589.41;4997692;28;20329;-68
2024/01/29 07:49:31;;;;;;;;;;;;;;;2.53;100.00;102584.78;5000990;28;19931;-68
2024/01/29 07:51:56;;;;;;;;;;;;;;;2.63;100.00;102588.19;5002845;28;19925;-68
2024/01/29 07:54:22;;;;;;;;;;;;;;;2.75;100.00;102592.41;4993107;28;19964;-68
2024/01/29 07:56:47;;;;;;;;;;;;;;;2.91;100.00;102591.22;4995146;28;19917;-68
2024/01/29 07:59:12;;;;;;;;;;;;;;;2.97;100.00;102585.81;4986779;28;19922;-68
2024/01/29 08:01:39;;;;;;;;;;;;;;;3.09;100.00;102591.78;4996892;28;19960;-68
2024/01/29 08:04:05;;;;;;;;;;;;;;;3.18;100.00;102596.09;4996883;28;20269;-68
2024/01/29 08:06:30;;;;;;;;;;;;;;;3.27;100.00;102596.78;5003439;28;19925;-68
2024/01/29 08:08:55;;;;;;;;;;;;;;;3.32;100.00;102595.78;4994922;28;19918;-68
2024/01/29 08:11:21;;;;;;;;;;;;;;;3.43;100.00;102597.38;4996871;28;20044;-68
2024/01/29 08:13:46;;;;;;;;;;;;;;;3.43;100.00;102599.13;4989614;28;19944;-68
2024/01/29 08:16:12;;;;;;;;;;;;;;;3.48;100.00;102596.38;5013180;28;19928;-68
2024/01/29 08:18:37;;;;;;;;;;;;;;;3.52;100.00;102595.41;4994975;28;19980;-68
2024/01/29 08:21:03;;;;;;;;;;;;;;;3.64;100.00;102584.56;4996242;28;19925;-69
2024/01/29 08:23:28;;;;;;;;;;;;;;;3.71;100.00;102587.94;4991049;28;19921;-69
2024/01/29 08:25:54;;;;;;;;;;;;;;;3.80;100.00;102597.50;4994910;28;19924;-69
2024/01/29 08:28:19;;;;;;;;;;;;;;;3.93;100.00;102604.31;4991578;28;20016;-68
2024/01/29 08:30:44;;;;;;;;;;;;;;;4.13;100.00;102613.63;5008482;28;19926;-68
2024/01/29 08:33:09;;;;;;;;;;;;;;;4.36;100.00;102607.81;4989271;28;19940;-68
2024/01/29 08:35:35;;;;;;;;;;;;;;;4.47;100.00;102619.06;4996659;28;20320;-68
2024/01/29 08:38:01;;;;;;;;;;;;;;;4.61;100.00;102617.88;4985510;28;20696;-69
2024/01/29 08:40:26;;;;;;;;;;;;;;;4.77;100.00;102611.25;4989562;28;19952;-68
2024/01/29 08:42:51;;;;;;;;;;;;;;;4.86;100.00;102614.59;4994028;28;19945;-69
2024/01/29 08:45:17;;;;;;;;;;;;;;;4.94;100.00;102608.16;4998050;28;20000;-69
2024/01/29 08:47:42;;;;;;;;;;;;;;;5.05;100.00;102615.88;4987207;28;20028;-69
2024/01/29 08:50:08;;;;;;;;;;;;;;;5.07;100.00;102616.69;5000870;28;20016;-69
2024/01/29 08:52:33;;;;;;;;;;;;;;;5.07;100.00;102611.38;5001561;28;20357;-69
2024/01/29 08:54:58;;;;;;;;;;;;;;;5.17;100.00;102595.13;4995149;28;20100;-69
2024/01/29 08:57:23;;;;;;;;;;;;;;;5.08;100.00;102598.91;4988391;28;20387;-69
2024/01/29 08:59:48;;;;;;;;;;;;;;;5.03;100.00;102607.03;4984567;28;19993;-69
2024/01/29 09:02:14;;;;;;;;;;;;;;;5.31;100.00;102595.66;4986739;28;19925;-69
2024/01/29 09:04:40;;;;;;;;;;;;;;;5.25;100.00;102590.50;5002763;28;19921;-69
2024/01/29 09:07:05;;;;;;;;;;;;;;;5.61;100.00;102602.81;4987098;28;19921;-69
2024/01/29 09:09:30;;;;;;;;;;;;;;;5.67;100.00;102600.88;4994643;28;20014;-69
2024/01/29 09:11:55;;;;;;;;;;;;;;;5.80;100.00;102597.84;5005912;28;19926;-69
2024/01/29 09:14:21;;;;;;;;;;;;;;;5.88;100.00;102595.81;4996682;28;19925;-69
2024/01/29 09:16:46;;;;;;;;;;;;;;;6.00;100.00;102598.13;4994042;28;19926;-69
2024/01/29 09:19:12;;;;;;;;;;;;;;;6.06;100.00;102591.75;4996723;28;19921;-69
2024/01/29 09:21:37;;;;;;;;;;;;;;;5.93;100.00;102590.34;5004331;28;19921;-69
2024/01/29 09:24:03;;;;;;;;;;;;;;;5.90;100.00;102595.75;4993075;28;19928;-69
2024/01/29 09:26:28;;;;;;;;;;;;;;;5.91;100.00;102602.84;4993581;28;19925;-69
2024/01/29 09:28:53;;;;;;;;;;;;;;;5.72;100.00;102595.41;4995850;28;19929;-69
2024/01/29 09:31:19;;;;;;;;;;;;;;;5.84;100.00;102587.03;4993287;28;19985;-69
2024/01/29 09:33:44;;;;;;;;;;;;;;;6.05;100.00;102594.47;4978147;28;20139;-69
2024/01/29 09:36:10;;;;;;;;;;;;;;;5.91;100.00;102598.41;4989960;28;19932;-69
2024/01/29 09:38:35;;;;;;;;;;;;;;;6.15;100.00;102596.78;4992053;28;19922;-69
2024/01/29 09:41:00;;;;;;;;;;;;;;;6.39;100.00;102593.41;4989487;28;20424;-69
2024/01/29 09:43:26;;;;;;;;;;;;;;;6.49;100.00;102599.31;4995478;28;19922;-69
2024/01/29 09:45:51;;;;;;;;;;;;;;;6.55;100.00;102604.47;4995117;28;19921;-69
2024/01/29 09:48:16;;;;;;;;;;;;;;;6.79;100.00;102593.91;4985702;28;19952;-69
2024/01/29 09:50:42;;;;;;;;;;;;;;;6.93;100.00;102602.28;4994315;28;19922;-69
2024/01/29 09:53:07;;;;;;;;;;;;;;;7.16;100.00;102604.19;5005412;28;19944;-70
2024/01/29 09:55:33;;;;;;;;;;;;;;;7.44;100.00;102600.53;5005798;28;19937;-69
2024/01/29 09:57:58;;;;;;;;;;;;;;;7.68;100.00;102605.03;4990790;28;19921;-69
2024/01/29 10:00:23;;;;;;;;;;;;;;;7.84;100.00;102602.63;4994516;28;20003;-69
2024/01/29 10:02:50;;;;;;;;;;;;;;;8.01;100.00;102618.03;4996521;28;19929;-70
2024/01/29 10:05:16;;;;;;;;;;;;;;;8.19;100.00;102620.00;5007094;28;19925;-69
2024/01/29 10:07:41;;;;;;;;;;;;;;;8.23;100.00;102616.25;4990404;28;20023;-69
2024/01/29 10:10:07;;;;;;;;;;;;;;;8.29;100.00;102615.16;5008854;28;20291;-70
2024/01/29 10:12:33;;;;;;;;;;;;;;;8.43;100.00;102614.63;4994827;28;19929;-69
2024/01/29 10:14:58;;;;;;;;;;;;;;;8.60;100.00;102616.66;4994235;28;20367;-70
2024/01/29 10:17:24;;;;;;;;;;;;;;;8.97;100.00;102608.88;4993605;28;20003;-70
2024/01/29 10:19:49;;;;;;;;;;;;;;;9.13;100.00;102617.13;4996826;28;20067;-69
2024/01/29 10:22:14;;;;;;;;;;;;;;;9.35;100.00;102617.03;4992585;28;19928;-69
2024/01/29 10:24:39;;;;;;;;;;;;;;;9.43;100.00;102620.25;4987868;28;19942;-70
2024/01/29 10:27:05;;;;;;;;;;;;;;;9.33;100.00;102618.06;4996114;28;20015;-69
2024/01/29 10:29:30;;;;;;;;;;;;;;;9.34;100.00;102623.31;4998156;28;20024;-70
2024/01/29 10:31:59;;;;;;;;;;;;;;;9.54;100.00;102621.56;4992352;28;19926;-70
2024/01/29 10:34:24;;;;;;;;;;;;;;;9.64;100.00;102624.72;5008304;28;19921;-70
2024/01/29 10:36:49;;;;;;;;;;;;;;;9.68;100.00;102632.56;5007782;28;20431;-70
2024/01/29 10:39:14;;;;;;;;;;;;;;;9.84;100.00;102622.00;4986885;28;19942;-69
2024/01/29 10:41:39;;;;;;;;;;;;;;;10.06;100.00;102632.56;5009918;28;19932;-69
2024/01/29 10:44:05;;;;;;;;;;;;;;;10.41;100.00;102629.22;4991990;28;19936;-69
2024/01/29 10:46:33;;;;;;;;;;;;;;;10.52;100.00;102617.94;4992598;28;19929;-69
2024/01/29 10:48:58;;;;;;;;;;;;;;;10.77;100.00;102620.25;4992773;28;19983;-70
2024/01/29 10:51:23;;;;;;;;;;;;;;;10.78;100.00;102626.50;5006579;28;19925;-69
2024/01/29 10:53:49;;;;;;;;;;;;;;;11.52;100.00;102621.84;5008955;28;20010;-69
2024/01/29 10:56:15;;;;;;;;;;;;;;;11.78;100.00;102624.94;4985854;28;19948;-69
2024/01/29 10:58:40;;;;;;;;;;;;;;;12.11;100.00;102621.34;5004438;28;19987;-70
2024/01/29 11:01:05;;;;;;;;;;;;;;;12.45;100.00;102619.44;4993421;28;20338;-69
2024/01/29 11:03:31;;;;;;;;;;;;;;;12.54;100.00;102620.72;4993388;28;20367;-69
2024/01/29 11:05:58;;;;;;;;;;;;;;;12.81;100.00;102630.84;4994416;28;19926;-69
2024/01/29 11:08:24;;;;;;;;;;;;;;;12.24;100.00;102630.50;5003473;28;19921;-70
2024/01/29 11:10:49;;;;;;;;;;;;;;;12.41;100.00;102620.56;4995258;28;19921;-70
2024/01/29 11:13:15;;;;;;;;;;;;;;;12.60;100.00;102625.78;4994797;28;19925;-71
2024/01/29 11:15:41;;;;;;;;;;;;;;;12.76;100.00;102625.75;4998511;28;19921;-70
2024/01/29 11:18:06;;;;;;;;;;;;;;;12.49;100.00;102628.19;4989722;28;20284;-71
2024/01/29 11:20:33;;;;;;;;;;;;;;;12.79;100.00;102622.88;5006687;28;19961;-71
2024/01/29 11:22:59;;;;;;;;;;;;;;;12.60;100.00;102620.38;4988564;28;20133;-70
2024/01/29 11:25:25;;;;;;;;;;;;;;;12.51;100.00;102613.69;4990755;28;20323;-70
2024/01/29 11:27:50;;;;;;;;;;;;;;;12.67;100.00;102616.38;4993618;28;19941;-70
2024/01/29 11:30:19;;;;;;;;;;;;;;;12.39;100.00;102614.41;4985636;28;20012;-71
2024/01/29 11:32:48;;;;;;;;;;;;;;;12.30;100.00;102605.91;4992546;28;19929;-71
2024/01/29 11:35:14;;;;;;;;;;;;;;;12.51;100.00;102612.81;4989905;28;20482;-70
2024/01/29 11:37:39;;;;;;;;;;;;;;;13.20;100.00;102605.19;5010398;28;19922;-70
2024/01/29 11:40:05;;;;;;;;;;;;;;;12.99;100.00;102607.34;4992954;28;19959;-71
2024/01/29 11:42:30;;;;;;;;;;;;;;;13.22;100.00;102605.06;5008390;28;20012;-71
2024/01/29 11:44:56;;;;;;;;;;;;;;;12.74;100.00;102606.09;4994435;28;19967;-70
2024/01/29 11:47:22;;;;;;;;;;;;;;;12.43;100.00;102608.75;4999224;28;19929;-71
2024/01/29 11:49:49;;;;;;;;;;;;;;;12.13;100.00;102587.13;4980302;28;20405;-70
2024/01/29 11:52:16;;;;;;;;;;;;;;;12.86;100.00;102589.19;4993871;28;19926;-70
2024/01/29 11:54:41;;;;;;;;;;;;;;;13.31;100.00;102591.03;4995021;28;19987;-70
2024/01/29 11:57:07;;;;;;;;;;;;;;;13.63;100.00;102583.66;4988293;28;19929;-71
2024/01/29 11:59:42;;;;;;;;;;;;;;;12.88;100.00;102584.56;4992950;28;19961;-71
2024/01/29 12:02:07;;;;;;;;;;;;;;;13.17;100.00;102587.34;4994268;28;19921;-71
2024/01/29 12:04:32;;;;;;;;;;;;;;;13.43;100.00;102584.88;4995725;28;19928;-70
2024/01/29 12:06:57;;;;;;;;;;;;;;;13.95;100.00;102580.72;5001346;28;19980;-70
2024/01/29 12:09:23;;;;;;;;;;;;;;;13.55;100.00;102580.56;4995886;28;19992;-71
2024/01/29 12:11:48;;;;;;;;;;;;;;;13.50;100.00;102585.41;5000112;28;20012;-70
2024/01/29 12:14:15;;;;;;;;;;;;;;;13.40;100.00;102590.44;5009864;28;20423;-71
2024/01/29 12:16:40;;;;;;;;;;;;;;;13.48;100.00;102585.47;4993303;28;20107;-70
2024/01/29 12:19:05;;;;;;;;;;;;;;;13.45;100.00;102590.22;4993048;28;20133;-70
2024/01/29 12:21:31;;;;;;;;;;;;;;;13.48;100.00;102588.16;4995318;28;20041;-70
2024/01/29 12:23:57;;;;;;;;;;;;;;;13.35;100.00;102587.19;4994222;28;19948;-70
2024/01/29 12:26:27;;;;;;;;;;;;;;;13.08;100.00;102582.53;4998825;28;20280;-71